Time;durP1;ratioP1;P1;durP2;ratioP2;P2;SDS_P1;SDS_P2;PMS_P1;PMS_P2;Temp;Humidity;BMP_temperature;BMP_pressure;BME280_temperature;BME280_humidity;BME280_pressure;Samples;Min_cycle;Max_cycle;Signal;HPM_P1;HPM_P2
2022/02/21 00:01:59;;;;;;;1.70;0.80;;;;;;;7.58;100.00;98056.69;5037139;28;20042;-80
2022/02/21 00:04:44;;;;;;;1.85;0.88;;;;;;;7.60;100.00;98050.47;5036428;28;20056;-80
2022/02/21 00:07:28;;;;;;;1.42;1.08;;;;;;;7.66;100.00;98039.81;5037017;28;20049;-81
2022/02/21 00:10:15;;;;;;;1.52;0.77;;;;;;;7.59;100.00;98050.56;5022378;28;20057;-81
2022/02/21 00:13:00;;;;;;;1.85;0.75;;;;;;;7.54;100.00;98023.81;5037109;28;20038;-81
2022/02/21 00:15:44;;;;;;;1.50;0.60;;;;;;;7.46;100.00;98014.56;5036925;28;20442;-81
2022/02/21 00:18:30;;;;;;;1.08;0.30;;;;;;;7.45;100.00;98020.72;5036963;28;20041;-81
2022/02/21 00:21:14;;;;;;;2.63;0.40;;;;;;;7.46;100.00;98011.97;5036607;28;20159;-81
2022/02/21 00:23:59;;;;;;;1.23;0.70;;;;;;;7.54;100.00;98000.38;5036047;28;20050;-81
2022/02/21 00:26:44;;;;;;;2.75;1.70;;;;;;;7.42;100.00;98002.59;5022369;28;20338;-80
2022/02/21 00:29:29;;;;;;;1.23;0.50;;;;;;;7.42;100.00;97999.16;5036755;28;20418;-82
2022/02/21 00:32:14;;;;;;;1.83;1.10;;;;;;;7.42;100.00;97992.16;5035918;28;20037;-81
2022/02/21 00:34:58;;;;;;;1.35;0.63;;;;;;;7.40;100.00;97987.94;5036584;28;20041;-80
2022/02/21 00:37:42;;;;;;;0.52;0.25;;;;;;;7.37;100.00;97973.28;5022082;28;20037;-80
2022/02/21 00:40:27;;;;;;;1.70;0.50;;;;;;;7.37;100.00;97988.91;5036545;28;20045;-81
2022/02/21 00:43:11;;;;;;;0.85;0.32;;;;;;;7.43;100.00;97983.44;5035754;28;20041;-81
2022/02/21 00:45:56;;;;;;;2.08;0.60;;;;;;;7.37;100.00;97968.06;5021909;28;20350;-81
2022/02/21 00:48:40;;;;;;;1.40;0.93;;;;;;;7.41;100.00;97954.03;5035624;28;20041;-80
2022/02/21 00:51:25;;;;;;;1.15;0.80;;;;;;;7.31;100.00;97954.44;5035358;28;20045;-81
2022/02/21 00:54:09;;;;;;;0.73;0.35;;;;;;;7.40;100.00;97946.25;5035430;28;20369;-80
2022/02/21 00:56:53;;;;;;;1.63;0.50;;;;;;;7.25;100.00;97943.38;5035671;28;20052;-81
2022/02/21 00:59:38;;;;;;;1.13;0.63;;;;;;;7.30;100.00;97942.34;5035626;28;20076;-80
2022/02/21 01:02:23;;;;;;;3.20;0.68;;;;;;;7.31;100.00;97925.78;5035437;28;20041;-80
2022/02/21 01:05:08;;;;;;;0.30;0.25;;;;;;;7.23;100.00;97928.72;5035394;28;20053;-81
2022/02/21 01:07:53;;;;;;;3.13;1.48;;;;;;;7.35;100.00;97922.19;5035500;28;20101;-80
2022/02/21 01:10:38;;;;;;;3.35;0.85;;;;;;;7.30;100.00;97914.53;5035410;28;20045;-80
2022/02/21 01:13:23;;;;;;;1.55;0.45;;;;;;;7.28;100.00;97908.56;5035320;28;20056;-81
2022/02/21 01:16:07;;;;;;;1.42;0.73;;;;;;;7.21;100.00;97901.91;5036057;28;20037;-81
2022/02/21 01:18:52;;;;;;;1.65;0.85;;;;;;;7.17;100.00;97890.75;5035279;28;20046;-81
2022/02/21 01:21:36;;;;;;;1.38;0.40;;;;;;;7.23;100.00;97892.28;5035191;28;20037;-81
2022/02/21 01:24:20;;;;;;;2.55;1.05;;;;;;;7.29;100.00;97893.78;5035876;28;20605;-83
2022/02/21 01:27:05;;;;;;;1.77;0.70;;;;;;;7.20;100.00;97892.41;5035767;28;20048;-82
2022/02/21 01:29:49;;;;;;;1.65;0.70;;;;;;;7.13;100.00;97862.34;5036011;28;20053;-81
2022/02/21 01:32:34;;;;;;;1.95;0.57;;;;;;;7.25;100.00;97862.66;5036769;28;20046;-80
2022/02/21 01:35:18;;;;;;;2.40;0.45;;;;;;;7.21;100.00;97844.63;5039787;28;20049;-81
2022/02/21 01:38:02;;;;;;;1.60;0.68;;;;;;;7.17;100.00;97856.06;5039899;28;20427;-83
2022/02/21 01:40:47;;;;;;;1.00;0.70;;;;;;;7.17;100.00;97845.66;5025245;28;20484;-82
2022/02/21 01:43:31;;;;;;;2.95;1.50;;;;;;;7.16;100.00;97829.19;5039219;28;20112;-82
2022/02/21 01:46:16;;;;;;;1.10;0.70;;;;;;;7.08;100.00;97833.88;5039776;28;20052;-81
2022/02/21 01:49:00;;;;;;;3.17;0.90;;;;;;;7.12;100.00;97832.84;5025072;28;20144;-82
2022/02/21 01:51:44;;;;;;;1.75;1.05;;;;;;;7.04;100.00;97806.28;5038762;28;20057;-81
2022/02/21 01:54:30;;;;;;;1.42;0.90;;;;;;;7.13;100.00;97812.88;5024955;28;20481;-81
2022/02/21 01:57:14;;;;;;;1.38;1.15;;;;;;;7.08;100.00;97797.41;5038794;28;20128;-81
2022/02/21 01:59:59;;;;;;;2.25;1.20;;;;;;;7.12;100.00;97788.59;5039604;28;20105;-82
2022/02/21 02:02:46;;;;;;;0.77;0.50;;;;;;;7.20;100.00;97783.88;5024889;28;20045;-82
2022/02/21 02:05:30;;;;;;;4.22;0.80;;;;;;;7.10;100.00;97768.75;5038959;28;20049;-82
2022/02/21 02:08:15;;;;;;;2.60;1.33;;;;;;;7.14;100.00;97765.09;5038548;28;20045;-81
2022/02/21 02:10:59;;;;;;;2.08;1.10;;;;;;;7.06;100.00;97747.19;5038636;28;20112;-81
2022/02/21 02:13:49;;;;;;;1.52;0.60;;;;;;;7.16;100.00;97748.47;5039201;28;20350;-80
2022/02/21 02:16:33;;;;;;;1.27;0.63;;;;;;;7.21;100.00;97754.34;5024549;28;20038;-81
2022/02/21 02:19:18;;;;;;;2.78;0.60;;;;;;;7.19;100.00;97742.31;5038463;28;20120;-81
2022/02/21 02:22:10;;;;;;;2.53;1.33;;;;;;;7.19;100.00;97737.09;5038399;28;20048;-81
2022/02/21 02:24:55;;;;;;;2.25;0.90;;;;;;;7.19;100.00;97724.09;5038405;28;20361;-81
2022/02/21 02:27:41;;;;;;;0.70;0.40;;;;;;;7.13;100.00;97706.13;5024406;28;20042;-81
2022/02/21 02:30:25;;;;;;;1.73;0.60;;;;;;;7.12;100.00;97673.19;5038946;28;20045;-81
2022/02/21 02:33:09;;;;;;;23.75;9.02;;;;;;;7.12;100.00;97679.25;5038862;28;20046;-81
2022/02/21 02:35:54;;;;;;;20.23;8.48;;;;;;;7.24;100.00;97670.84;5038104;28;20045;-82
2022/02/21 02:38:39;;;;;;;11.43;6.22;;;;;;;7.23;100.00;97676.16;5038977;28;20045;-83
2022/02/21 02:41:24;;;;;;;6.65;2.53;;;;;;;7.13;100.00;97661.88;5038737;28;20042;-81
2022/02/21 02:44:08;;;;;;;3.67;1.70;;;;;;;7.22;100.00;97661.47;5038540;28;20037;-83
2022/02/21 02:46:52;;;;;;;1.50;0.95;;;;;;;7.18;100.00;97652.94;5037944;28;20050;-83
2022/02/21 02:49:38;;;;;;;3.17;1.50;;;;;;;7.21;100.00;97655.41;5038393;28;20049;-82
2022/02/21 02:52:23;;;;;;;2.33;0.90;;;;;;;7.21;100.00;97631.09;5038557;28;20046;-85
2022/02/21 02:55:08;;;;;;;3.40;0.80;;;;;;;7.18;100.00;97644.25;5037689;28;20357;-86
2022/02/21 02:57:52;;;;;;;5.13;2.72;;;;;;;7.17;100.00;97619.16;5037742;28;20099;-83
2022/02/21 03:00:37;;;;;;;2.40;0.80;;;;;;;7.21;100.00;97628.50;5038429;28;20171;-83
2022/02/21 03:03:21;;;;;;;1.05;0.57;;;;;;;7.15;100.00;97626.19;5037631;28;20099;-83
2022/02/21 03:06:06;;;;;;;1.15;0.30;;;;;;;7.18;100.00;97624.31;5038281;28;20037;-84
2022/02/21 03:08:50;;;;;;;3.67;0.70;;;;;;;7.29;100.00;97607.34;5038308;28;20045;-82
2022/02/21 03:11:35;;;;;;;2.42;0.40;;;;;;;7.35;100.00;97623.53;5037574;28;20358;-83
2022/02/21 03:14:21;;;;;;;2.53;0.98;;;;;;;7.29;100.00;97602.13;5038033;28;20617;-82
2022/02/21 03:17:05;;;;;;;5.65;2.15;;;;;;;7.30;100.00;97591.63;5038053;28;20046;-82
2022/02/21 03:19:50;;;;;;;3.88;0.65;;;;;;;7.36;100.00;97593.09;5037320;28;20410;-84
2022/02/21 03:22:35;;;;;;;2.33;1.15;;;;;;;7.32;100.00;97592.41;5038152;28;20045;-85
2022/02/21 03:25:19;;;;;;;4.05;1.80;;;;;;;7.34;100.00;97587.94;5037957;28;20049;-85
2022/02/21 03:28:04;;;;;;;1.08;0.63;;;;;;;7.13;100.00;97529.09;5037217;28;20057;-83
2022/02/21 03:30:52;;;;;;;2.58;0.40;;;;;;;7.38;100.00;97576.50;5037882;28;20042;-84
2022/02/21 03:33:37;;;;;;;3.13;1.80;;;;;;;7.37;100.00;97561.78;5037824;28;20041;-82
2022/02/21 03:36:21;;;;;;;4.85;2.45;;;;;;;7.41;100.00;97559.84;5023071;28;20049;-83
2022/02/21 03:39:06;;;;;;;2.05;0.98;;;;;;;7.38;100.00;97571.28;5022894;28;20042;-83
2022/02/21 03:41:50;;;;;;;3.40;2.00;;;;;;;7.36;100.00;97556.66;5037079;28;20048;-83
2022/02/21 03:44:34;;;;;;;3.50;2.17;;;;;;;7.52;100.00;97546.34;5037701;28;20049;-81
2022/02/21 03:47:19;;;;;;;7.55;4.30;;;;;;;7.53;100.00;97551.47;5037490;28;20095;-81
2022/02/21 03:50:04;;;;;;;6.57;4.25;;;;;;;7.54;100.00;97547.09;5036496;28;20049;-82
2022/02/21 03:52:48;;;;;;;3.20;1.80;;;;;;;7.43;100.00;97548.47;5037409;28;20045;-82
2022/02/21 03:55:32;;;;;;;0.80;0.50;;;;;;;7.54;100.00;97536.66;5036966;28;20049;-81
2022/02/21 03:58:17;;;;;;;1.35;0.57;;;;;;;7.49;100.00;97522.13;5036572;28;20418;-81
2022/02/21 04:01:01;;;;;;;2.67;1.65;;;;;;;7.43;100.00;97522.41;5037360;28;20116;-82
2022/02/21 04:03:46;;;;;;;1.73;0.73;;;;;;;7.52;100.00;97494.25;5036503;28;20041;-82
2022/02/21 04:06:30;;;;;;;2.00;1.00;;;;;;;7.52;100.00;97504.66;5037184;28;20037;-82
2022/02/21 04:09:14;;;;;;;2.65;1.08;;;;;;;7.43;100.00;97508.56;5036345;28;20226;-81
2022/02/21 04:11:59;;;;;;;2.67;1.20;;;;;;;7.41;100.00;97508.63;5037046;28;20041;-83
2022/02/21 04:14:43;;;;;;;2.75;0.65;;;;;;;7.48;100.00;97515.22;5036971;28;20357;-83
2022/02/21 04:17:27;;;;;;;2.30;1.25;;;;;;;7.48;100.00;97503.97;5037221;28;20046;-81
2022/02/21 04:20:15;;;;;;;1.13;0.70;;;;;;;7.42;100.00;97505.09;5036091;28;20042;-81
2022/02/21 04:22:59;;;;;;;1.27;0.70;;;;;;;7.44;100.00;97497.19;5036861;28;20061;-81
2022/02/21 04:25:45;;;;;;;1.48;0.70;;;;;;;7.45;100.00;97504.13;5022252;28;20045;-82
2022/02/21 04:28:29;;;;;;;2.47;0.70;;;;;;;7.38;100.00;97489.72;5036792;28;20045;-82
2022/02/21 04:31:17;;;;;;;3.97;1.75;;;;;;;7.42;100.00;97484.28;5036651;28;20358;-82
2022/02/21 04:34:01;;;;;;;2.45;0.93;;;;;;;7.36;100.00;97474.16;5035917;28;20119;-83
2022/02/21 04:36:46;;;;;;;2.20;0.80;;;;;;;7.35;100.00;97474.25;5022062;28;20072;-81
2022/02/21 04:39:30;;;;;;;2.10;1.20;;;;;;;7.33;100.00;97466.47;5035951;28;20120;-82
2022/02/21 04:42:16;;;;;;;3.08;1.73;;;;;;;7.39;100.00;97463.59;5035724;28;20392;-82
2022/02/21 04:45:00;;;;;;;3.22;1.58;;;;;;;7.40;100.00;97452.25;5036544;28;20116;-82
2022/02/21 04:47:45;;;;;;;14.02;7.95;;;;;;;7.39;100.00;97453.16;5021895;28;20049;-82
2022/02/21 04:50:29;;;;;;;13.80;6.90;;;;;;;7.44;100.00;97445.13;5036307;28;20049;-82
2022/02/21 04:53:14;;;;;;;4.10;2.08;;;;;;;7.39;100.00;97429.72;5021656;28;20037;-83
2022/02/21 04:55:59;;;;;;;4.43;2.42;;;;;;;7.42;100.00;97429.56;5036200;28;20052;-81
2022/02/21 04:58:43;;;;;;;3.42;1.55;;;;;;;7.42;100.00;97418.31;5035600;28;20132;-82
2022/02/21 05:01:28;;;;;;;4.90;1.40;;;;;;;7.38;100.00;97424.63;5021650;28;20037;-81
2022/02/21 05:04:12;;;;;;;4.22;0.90;;;;;;;7.43;100.00;97426.03;5035466;28;20362;-83
2022/02/21 05:06:56;;;;;;;6.15;3.70;;;;;;;7.46;100.00;97425.88;5034878;28;20418;-82
2022/02/21 05:09:41;;;;;;;7.95;4.80;;;;;;;7.43;100.00;97399.16;5035427;28;20041;-82
2022/02/21 05:12:26;;;;;;;7.05;2.35;;;;;;;7.53;100.00;97404.75;5036512;28;20052;-82
2022/02/21 05:15:12;;;;;;;3.25;1.60;;;;;;;7.57;100.00;97403.66;5035891;28;20045;-84
2022/02/21 05:17:56;;;;;;;4.75;2.10;;;;;;;7.50;100.00;97406.56;5036008;28;20069;-82
2022/02/21 05:20:41;;;;;;;8.30;2.67;;;;;;;7.06;100.00;97316.88;5036019;28;20052;-83
2022/02/21 05:23:25;;;;;;;4.35;1.40;;;;;;;7.61;100.00;97386.97;5021349;28;20049;-84
2022/02/21 05:26:10;;;;;;;5.22;1.65;;;;;;;7.58;100.00;97389.75;5035130;28;20476;-84
2022/02/21 05:28:54;;;;;;;3.58;1.85;;;;;;;7.61;100.00;97374.78;5035256;28;20045;-84
2022/02/21 05:31:39;;;;;;;6.25;1.90;;;;;;;7.66;100.00;97374.53;5021206;28;20049;-83
2022/02/21 05:34:23;;;;;;;7.32;1.75;;;;;;;7.67;100.00;97364.06;5021219;28;20350;-83
2022/02/21 05:37:08;;;;;;;3.63;1.70;;;;;;;7.76;100.00;97377.50;5035059;28;20045;-84
2022/02/21 05:39:52;;;;;;;6.15;3.60;;;;;;;7.69;100.00;97343.13;5035107;28;20045;-82
2022/02/21 05:42:36;;;;;;;14.27;8.52;;;;;;;7.80;100.00;97364.25;5035437;28;20046;-83
2022/02/21 05:45:20;;;;;;;8.15;3.78;;;;;;;7.77;100.00;97359.22;5020583;28;20045;-84
2022/02/21 05:48:05;;;;;;;5.45;2.75;;;;;;;7.75;100.00;97360.19;5034855;28;20041;-82
2022/02/21 05:50:49;;;;;;;2.58;1.13;;;;;;;7.91;100.00;97354.09;5032953;28;20049;-82
2022/02/21 05:53:34;;;;;;;2.38;1.05;;;;;;;7.90;100.00;97362.84;5033831;28;20539;-82
2022/02/21 05:56:18;;;;;;;1.75;0.70;;;;;;;7.97;100.00;97356.38;5033008;28;20134;-81
2022/02/21 05:59:03;;;;;;;2.25;0.60;;;;;;;7.90;100.00;97355.03;5019194;28;20059;-81
2022/02/21 06:01:48;;;;;;;1.00;0.45;;;;;;;7.88;100.00;97353.41;5032983;28;20687;-82
2022/02/21 06:04:32;;;;;;;2.67;1.08;;;;;;;7.91;100.00;97341.06;5033601;28;20103;-83
2022/02/21 06:07:17;;;;;;;2.42;0.93;;;;;;;7.94;100.00;97350.50;5032033;28;20041;-83
2022/02/21 06:10:03;;;;;;;3.97;1.73;;;;;;;8.02;100.00;97345.69;5032460;28;20385;-82
2022/02/21 06:12:48;;;;;;;8.55;4.40;;;;;;;7.94;100.00;97347.88;5033236;28;20041;-82
2022/02/21 06:15:32;;;;;;;4.75;2.78;;;;;;;8.00;100.00;97336.31;5035069;28;20092;-82
2022/02/21 06:18:17;;;;;;;5.53;3.75;;;;;;;8.02;100.00;97337.03;5034263;28;20042;-83
2022/02/21 06:21:01;;;;;;;6.80;4.32;;;;;;;8.13;100.00;97340.75;5038594;28;20104;-83
2022/02/21 06:23:46;;;;;;;5.80;2.70;;;;;;;8.20;100.00;97325.63;5039022;28;20405;-82
2022/02/21 06:26:30;;;;;;;8.15;4.47;;;;;;;8.15;100.00;97315.44;5038152;28;20041;-74
2022/02/21 06:29:14;;;;;;;3.72;2.92;;;;;;;8.16;100.00;97322.34;5038219;28;20120;-74
2022/02/21 06:31:59;;;;;;;3.20;1.40;;;;;;;8.25;100.00;97323.59;5038571;28;20049;-74
2022/02/21 06:34:43;;;;;;;2.25;1.05;;;;;;;8.15;100.00;97317.19;5038469;28;20042;-74
2022/02/21 06:37:27;;;;;;;3.40;1.50;;;;;;;8.25;100.00;97312.31;5038472;28;20426;-74
2022/02/21 06:40:12;;;;;;;4.20;1.15;;;;;;;8.23;100.00;97325.47;5038930;28;20118;-74
2022/02/21 06:42:57;;;;;;;3.58;0.77;;;;;;;8.27;100.00;97326.97;5038099;28;20041;-74
2022/02/21 06:45:42;;;;;;;2.65;0.80;;;;;;;8.32;100.00;97326.69;5038616;28;20042;-74
2022/02/21 06:48:26;;;;;;;2.47;0.68;;;;;;;8.27;100.00;97332.19;5038283;28;20045;-74
2022/02/21 06:51:11;;;;;;;1.10;0.55;;;;;;;8.26;100.00;97333.13;5038267;28;20139;-74
2022/02/21 06:53:55;;;;;;;2.60;0.80;;;;;;;8.35;100.00;97337.84;5038583;28;20045;-74
2022/02/21 06:56:39;;;;;;;1.98;0.82;;;;;;;8.31;100.00;97354.56;5038186;28;20046;-74
2022/02/21 06:59:24;;;;;;;1.17;0.60;;;;;;;8.38;100.00;97376.81;5038634;28;20038;-74
2022/02/21 07:02:08;;;;;;;2.80;0.60;;;;;;;8.29;100.00;97379.06;5024209;28;20056;-74
2022/02/21 07:04:53;;;;;;;2.28;1.20;;;;;;;8.14;100.00;97384.16;5038904;28;20393;-74
2022/02/21 07:07:37;;;;;;;7.65;3.40;;;;;;;8.24;100.00;97401.91;5038229;28;20095;-74
2022/02/21 07:10:21;;;;;;;5.55;3.45;;;;;;;8.22;100.00;97428.06;5038386;28;20052;-74
2022/02/21 07:13:05;;;;;;;6.88;3.53;;;;;;;8.29;100.00;97402.53;5038585;28;20045;-74
2022/02/21 07:15:50;;;;;;;6.07;3.13;;;;;;;8.31;100.00;97411.94;5037808;28;20048;-74
2022/02/21 07:18:37;;;;;;;3.30;1.48;;;;;;;8.23;100.00;97415.91;5037626;28;20406;-74
2022/02/21 07:21:21;;;;;;;1.80;0.30;;;;;;;8.29;100.00;97428.59;5037252;28;20045;-74
2022/02/21 07:24:05;;;;;;;4.80;1.00;;;;;;;8.17;100.00;97428.31;5037669;28;20048;-74
2022/02/21 07:26:50;;;;;;;1.45;0.40;;;;;;;8.20;100.00;97430.75;5023359;28;20115;-74
2022/02/21 07:29:36;;;;;;;1.15;0.70;;;;;;;8.24;100.00;97443.63;5036486;28;20049;-84
2022/02/21 07:32:20;;;;;;;2.80;1.15;;;;;;;8.17;100.00;97419.66;5035162;28;20080;-84
2022/02/21 07:35:06;;;;;;;3.58;1.00;;;;;;;8.25;100.00;97438.34;5005815;28;20125;-85
2022/02/21 07:37:51;;;;;;;4.72;0.98;;;;;;;8.46;100.00;97449.44;5014923;28;20038;-86
2022/02/21 07:40:35;;;;;;;2.03;0.82;;;;;;;8.32;100.00;97444.94;5020483;28;20067;-85
2022/02/21 07:43:20;;;;;;;5.13;1.52;;;;;;;8.34;100.00;97445.66;5035667;28;20045;-85
2022/02/21 07:46:04;;;;;;;4.28;2.33;;;;;;;8.48;100.00;97454.56;5036633;28;20437;-86
2022/02/21 07:48:49;;;;;;;4.43;2.50;;;;;;;8.29;100.00;97426.84;5036086;28;20442;-85
2022/02/21 07:51:34;;;;;;;3.70;2.08;;;;;;;8.53;100.00;97466.44;5035857;28;20446;-85
2022/02/21 07:54:18;;;;;;;3.58;1.23;;;;;;;8.44;100.00;97451.28;5020758;28;20038;-85
2022/02/21 07:57:06;;;;;;;4.47;1.05;;;;;;;8.58;100.00;97460.97;5034844;28;20096;-85
2022/02/21 07:59:51;;;;;;;2.00;1.23;;;;;;;8.42;100.00;97466.19;5036320;28;20041;-87
2022/02/21 08:02:36;;;;;;;4.75;1.80;;;;;;;8.65;100.00;97491.88;5036412;28;20369;-91
2022/02/21 08:05:20;;;;;;;2.72;1.45;;;;;;;8.59;100.00;97493.97;5037173;28;20041;-85
2022/02/21 08:08:06;;;;;;;2.47;1.00;;;;;;;8.59;100.00;97499.19;5037256;28;20041;-85
2022/02/21 08:10:50;;;;;;;2.25;1.00;;;;;;;8.54;100.00;97501.19;5037636;28;20046;-86
2022/02/21 08:13:34;;;;;;;2.75;1.52;;;;;;;8.60;100.00;97495.66;5022371;28;20045;-85
2022/02/21 08:16:18;;;;;;;2.22;0.50;;;;;;;8.54;100.00;97485.53;5037385;28;20045;-86
2022/02/21 08:19:04;;;;;;;0.80;0.40;;;;;;;8.51;100.00;97493.53;5036348;28;20045;-86
2022/02/21 08:21:48;;;;;;;2.05;0.77;;;;;;;8.43;100.00;97497.38;5036744;28;20048;-85
2022/02/21 08:24:33;;;;;;;2.33;0.88;;;;;;;8.47;100.00;97499.84;5036685;28;20430;-86
2022/02/21 08:27:17;;;;;;;2.70;1.15;;;;;;;8.48;100.00;97498.91;5022232;28;20283;-85
2022/02/21 08:30:03;;;;;;;7.00;1.85;;;;;;;8.58;100.00;97510.53;5037346;28;20041;-84
2022/02/21 08:32:48;;;;;;;3.67;1.52;;;;;;;8.59;100.00;97512.25;5036330;28;20370;-85
2022/02/21 08:35:32;;;;;;;6.40;2.72;;;;;;;8.55;100.00;97518.56;5035821;28;20042;-84
2022/02/21 08:38:17;;;;;;;7.13;3.28;;;;;;;8.58;100.00;97508.78;5036522;28;20045;-85
2022/02/21 08:41:01;;;;;;;11.80;4.60;;;;;;;8.54;100.00;97506.41;5035783;28;20423;-86
2022/02/21 08:43:46;;;;;;;3.00;1.15;;;;;;;8.51;100.00;97489.16;5021916;28;20445;-85
2022/02/21 08:46:30;;;;;;;2.15;1.10;;;;;;;8.51;100.00;97496.13;5035740;28;20381;-86
2022/02/21 08:49:15;;;;;;;2.53;1.05;;;;;;;8.48;100.00;97497.13;5036153;28;20041;-84
2022/02/21 08:51:59;;;;;;;3.30;1.00;;;;;;;8.42;100.00;97497.47;5036712;28;20049;-85
2022/02/21 08:54:45;;;;;;;4.47;1.45;;;;;;;8.54;100.00;97516.84;5035949;28;20045;-84
2022/02/21 08:57:29;;;;;;;1.20;0.75;;;;;;;8.48;100.00;97491.91;5036326;28;20065;-83
2022/02/21 09:00:15;;;;;;;1.92;0.65;;;;;;;8.47;100.00;97518.94;5035458;28;20065;-86
2022/02/21 09:03:00;;;;;;;2.50;0.80;;;;;;;8.41;100.00;97525.31;5035988;28;20064;-84
2022/02/21 09:05:44;;;;;;;4.40;1.23;;;;;;;8.40;100.00;97552.34;5036681;28;20042;-84
2022/02/21 09:08:31;;;;;;;2.85;1.23;;;;;;;8.27;100.00;97551.25;5036396;28;20061;-86
2022/02/21 09:11:16;;;;;;;1.63;0.88;;;;;;;8.24;100.00;97567.06;5035790;28;20049;-84
2022/02/21 09:14:00;;;;;;;2.38;1.02;;;;;;;8.14;100.00;97552.81;5035647;28;20074;-86
2022/02/21 09:16:45;;;;;;;1.98;0.90;;;;;;;8.08;100.00;97551.34;5035437;28;20041;-85
2022/02/21 09:19:29;;;;;;;5.10;1.42;;;;;;;7.97;100.00;97556.25;5035626;28;20480;-85
2022/02/21 09:22:14;;;;;;;7.60;4.70;;;;;;;7.97;100.00;97538.00;5035910;28;20038;-86
2022/02/21 09:24:58;;;;;;;6.53;2.50;;;;;;;8.02;100.00;97562.06;5021439;28;20046;-84
2022/02/21 09:27:43;;;;;;;5.90;2.72;;;;;;;8.15;100.00;97585.75;5035882;28;20049;-87
2022/02/21 09:30:27;;;;;;;5.43;1.90;;;;;;;8.09;100.00;97579.13;5021305;28;20069;-84
2022/02/21 09:33:12;;;;;;;6.45;3.13;;;;;;;8.12;100.00;97588.53;5021431;28;20057;-85
2022/02/21 09:35:56;;;;;;;8.10;2.75;;;;;;;8.09;100.00;97586.06;5035646;28;20099;-85
2022/02/21 09:38:41;;;;;;;4.95;2.03;;;;;;;8.04;100.00;97604.56;5035236;28;20041;-85
2022/02/21 09:41:25;;;;;;;8.00;3.55;;;;;;;8.18;100.00;97620.34;5021476;28;20190;-85
2022/02/21 09:44:10;;;;;;;6.90;2.70;;;;;;;8.01;100.00;97633.38;5035127;28;20319;-85
2022/02/21 09:46:56;;;;;;;4.25;2.45;;;;;;;8.09;100.00;97633.00;5036089;28;20375;-86
2022/02/21 09:49:41;;;;;;;4.93;2.10;;;;;;;8.18;100.00;97654.25;5035197;28;20060;-86
2022/02/21 09:52:27;;;;;;;5.78;1.70;;;;;;;8.13;100.00;97655.41;5035106;28;20046;-84
2022/02/21 09:55:12;;;;;;;7.05;2.45;;;;;;;7.88;100.00;97638.34;5039036;28;20042;-85
2022/02/21 09:57:56;;;;;;;2.90;1.20;;;;;;;7.91;100.00;97648.63;5039940;28;20237;-85
2022/02/21 10:00:41;;;;;;;3.75;1.80;;;;;;;7.73;100.00;97714.66;5039301;28;20038;-85
2022/02/21 10:03:42;;;;;;;3.25;2.47;;;;;;;6.85;100.00;97735.09;5038881;28;20053;-84
2022/02/21 10:06:29;;;;;;;3.05;1.23;;;;;;;6.13;100.00;97748.47;5038835;28;20071;-83
2022/02/21 10:09:14;;;;;;;2.53;1.80;;;;;;;5.61;100.00;97754.75;5038958;28;20046;-83
2022/02/21 10:11:59;;;;;;;5.50;0.82;;;;;;;5.52;100.00;97731.72;5039092;28;20045;-84
2022/02/21 10:14:44;;;;;;;4.07;0.98;;;;;;;5.56;100.00;97774.03;5039878;28;20049;-84
2022/02/21 10:17:28;;;;;;;2.38;0.45;;;;;;;5.22;100.00;97771.78;5039069;28;20468;-85
2022/02/21 10:20:14;;;;;;;3.28;0.60;;;;;;;5.08;100.00;97767.09;5039811;28;20041;-85
2022/02/21 10:23:04;;;;;;;2.63;1.20;;;;;;;4.74;100.00;97782.94;5038416;28;20041;-84
2022/02/21 10:25:59;;;;;;;5.78;3.22;;;;;;;4.65;100.00;97795.34;5039420;28;20075;-74
2022/02/21 10:28:44;;;;;;;17.13;5.63;;;;;;;4.34;100.00;97774.75;5038688;28;20067;-73
2022/02/21 10:31:29;;;;;;;12.68;6.35;;;;;;;4.33;100.00;97774.81;5038587;28;20041;-73
2022/02/21 10:34:13;;;;;;;9.38;5.55;;;;;;;4.29;100.00;97793.91;5038931;28;20041;-73
2022/02/21 10:36:57;;;;;;;5.95;1.55;;;;;;;4.26;100.00;97773.28;5038887;28;20069;-73
2022/02/21 10:39:41;;;;;;;2.80;0.52;;;;;;;4.16;100.00;97780.50;5038253;28;20117;-73
2022/02/21 10:42:26;;;;;;;7.90;2.97;;;;;;;3.92;100.00;97767.41;5039195;28;20045;-74
2022/02/21 10:45:16;;;;;;;6.22;3.22;;;;;;;4.05;100.00;97767.03;5039277;28;20038;-74
2022/02/21 10:48:06;;;;;;;5.55;1.02;;;;;;;4.10;100.00;97760.00;5038829;28;20103;-74
2022/02/21 10:50:58;;;;;;;7.93;1.52;;;;;;;4.15;100.00;97751.16;5037961;28;20061;-73
2022/02/21 10:53:45;;;;;;;5.05;1.05;;;;;;;4.12;100.00;97764.22;5037825;28;20357;-73
2022/02/21 10:56:41;;;;;;;4.78;1.60;;;;;;;4.16;100.00;97739.91;5037359;28;20048;-73
2022/02/21 10:59:30;;;;;;;5.75;2.17;;;;;;;4.19;100.00;97739.81;5036727;28;20049;-74
2022/02/21 11:02:16;;;;;;;7.53;2.22;;;;;;;4.36;100.00;97756.56;5035721;28;20046;-74
2022/02/21 11:05:00;;;;;;;7.35;2.55;;;;;;;4.47;100.00;97757.06;5020569;28;20314;-73
2022/02/21 11:07:46;;;;;;;7.97;2.28;;;;;;;4.57;100.00;97778.34;5036328;28;20185;-73
2022/02/21 11:10:31;;;;;;;7.57;2.50;;;;;;;4.64;100.00;97769.44;5036375;28;20143;-73
2022/02/21 11:13:17;;;;;;;3.08;0.95;;;;;;;4.87;100.00;97766.06;5035474;28;20496;-73
2022/02/21 11:16:02;;;;;;;6.70;1.80;;;;;;;5.00;100.00;97769.09;5021522;28;20529;-74
2022/02/21 11:18:47;;;;;;;5.38;2.40;;;;;;;5.16;100.00;97767.66;5021857;28;20041;-74
2022/02/21 11:21:33;;;;;;;6.20;1.90;;;;;;;5.31;100.00;97785.28;5036388;28;20405;-73
2022/02/21 11:24:28;;;;;;;7.15;1.58;;;;;;;5.50;100.00;97813.19;5037451;28;20047;-73
2022/02/21 11:27:24;;;;;;;5.55;1.67;;;;;;;5.48;100.00;97794.22;5038203;28;20096;-74
2022/02/21 11:30:18;;;;;;;5.30;1.95;;;;;;;5.75;100.00;97797.53;5037817;28;20111;-74
2022/02/21 11:33:11;;;;;;;6.07;1.75;;;;;;;5.67;100.00;97805.63;5037595;28;20041;-85
2022/02/21 11:36:07;;;;;;;5.25;2.13;;;;;;;5.78;100.00;97816.44;5022918;28;20049;-85
2022/02/21 11:38:54;;;;;;;5.95;1.70;;;;;;;5.76;100.00;97820.03;5023430;28;20037;-85
2022/02/21 11:41:38;;;;;;;4.03;1.33;;;;;;;5.78;100.00;97816.44;5036917;28;20100;-85
2022/02/21 11:44:24;;;;;;;8.00;1.50;;;;;;;5.91;100.00;97824.63;5037186;28;20038;-85
2022/02/21 11:47:09;;;;;;;7.07;1.63;;;;;;;5.95;100.00;97833.22;5037540;28;20354;-85
2022/02/21 11:49:57;;;;;;;5.30;1.77;;;;;;;6.07;100.00;97837.94;5023018;28;20053;-85
2022/02/21 11:52:48;;;;;;;6.47;3.08;;;;;;;6.10;100.00;97830.00;5037358;28;20045;-85
2022/02/21 11:55:38;;;;;;;6.82;2.63;;;;;;;6.16;100.00;97828.94;5037668;28;20046;-86
2022/02/21 11:58:23;;;;;;;7.28;2.13;;;;;;;6.24;100.00;97838.16;5037093;28;20048;-85
2022/02/21 12:01:14;;;;;;;8.02;2.15;;;;;;;6.21;100.00;97846.06;5022867;28;20132;-85
2022/02/21 12:04:18;;;;;;;6.10;2.75;;;;;;;6.16;100.00;97834.97;5022539;28;20041;-84
2022/02/21 12:07:02;;;;;;;10.18;4.22;;;;;;;6.09;100.00;97820.53;5036653;28;20446;-84
2022/02/21 12:10:10;;;;;;;3.40;1.27;;;;;;;6.28;100.00;97839.72;5036399;28;20045;-83
2022/02/21 12:12:58;;;;;;;3.08;0.88;;;;;;;6.30;100.00;97832.72;5036311;28;20045;-84
2022/02/21 12:16:09;;;;;;;5.25;2.63;;;;;;;6.41;100.00;97842.69;5036171;28;20045;-84
2022/02/21 12:19:01;;;;;;;3.60;1.30;;;;;;;6.51;100.00;97838.81;5036071;28;20350;-85
2022/02/21 12:22:06;;;;;;;4.57;1.20;;;;;;;6.94;100.00;97833.59;5022874;28;20103;-85
2022/02/21 12:25:05;;;;;;;6.68;2.70;;;;;;;7.21;100.00;97861.09;5036960;28;20056;-86
2022/02/21 12:28:12;;;;;;;4.82;1.92;;;;;;;7.26;100.00;97858.28;5036168;28;20057;-85
2022/02/21 12:30:59;;;;;;;6.93;2.47;;;;;;;7.29;100.00;97852.97;5036641;28;20048;-85
2022/02/21 12:33:45;;;;;;;9.30;3.70;;;;;;;7.29;100.00;97850.34;5036100;28;20045;-86
2022/02/21 12:36:35;;;;;;;5.88;1.50;;;;;;;7.26;100.00;97869.56;5035820;28;20045;-86
2022/02/21 12:39:23;;;;;;;2.75;1.40;;;;;;;7.05;100.00;97844.41;5035818;28;20037;-87
2022/02/21 12:42:08;;;;;;;3.42;1.17;;;;;;;7.31;100.00;97861.53;5036781;28;20042;-85
2022/02/21 12:44:53;;;;;;;6.47;1.70;;;;;;;7.38;100.00;97856.94;5022486;28;20056;-86
2022/02/21 12:47:38;;;;;;;3.15;1.27;;;;;;;7.35;100.00;97851.84;5036066;28;20041;-87
2022/02/21 12:50:26;;;;;;;2.20;0.70;;;;;;;7.68;100.00;97833.91;5021559;28;20061;-80
2022/02/21 12:53:11;;;;;;;5.57;1.42;;;;;;;7.62;100.00;97839.38;5035726;28;20045;-78
2022/02/21 12:56:00;;;;;;;5.05;1.40;;;;;;;7.67;100.00;97842.59;5035295;28;20400;-78
2022/02/21 12:58:49;;;;;;;4.95;1.60;;;;;;;7.91;100.00;97859.78;5021621;28;20120;-79
2022/02/21 13:01:34;;;;;;;7.65;2.33;;;;;;;8.16;100.00;97858.66;5035437;28;20393;-79